createdAt,value
2023-01-02T00:02:20.763Z,13.67
2023-01-02T00:04:47.179Z,13.75
2023-01-02T00:07:13.588Z,13.70
2023-01-02T00:09:40.010Z,13.73
2023-01-02T00:12:06.395Z,13.64
2023-01-02T00:14:32.823Z,13.67
2023-01-02T00:16:59.354Z,13.62
2023-01-02T00:19:25.877Z,13.61
2023-01-02T00:21:53.058Z,13.58
2023-01-02T00:24:19.471Z,13.62
2023-01-02T00:26:46.043Z,13.65
2023-01-02T00:29:12.440Z,13.65
2023-01-02T00:31:49.517Z,13.62
2023-01-02T00:34:18.774Z,13.62
2023-01-02T00:36:45.183Z,13.60
2023-01-02T00:39:11.591Z,13.59
2023-01-02T00:41:38.006Z,13.56
2023-01-02T00:44:04.412Z,13.57
2023-01-02T00:46:30.876Z,13.60
2023-01-02T00:48:57.337Z,13.64
2023-01-02T00:51:23.892Z,13.65
2023-01-02T00:53:50.298Z,13.58
2023-01-02T00:56:16.724Z,13.57
2023-01-02T00:58:43.109Z,13.62
2023-01-02T01:01:09.567Z,13.59
2023-01-02T01:03:36.026Z,13.60
2023-01-02T01:06:10.023Z,13.67
2023-01-02T01:08:38.191Z,13.65
2023-01-02T01:11:15.956Z,13.58
2023-01-02T01:13:42.368Z,13.57
2023-01-02T01:16:12.102Z,13.57
2023-01-02T01:18:38.632Z,13.51
2023-01-02T01:21:19.734Z,13.48
2023-01-02T01:23:50.057Z,13.38
2023-01-02T01:26:17.256Z,13.40
2023-01-02T01:28:43.691Z,13.51
2023-01-02T01:31:15.139Z,13.49
2023-01-02T01:33:42.872Z,13.50
2023-01-02T01:36:12.755Z,13.45
2023-01-02T01:38:39.241Z,13.40
2023-01-02T01:41:06.243Z,13.45
2023-01-02T01:43:40.412Z,13.50
2023-01-02T01:46:28.011Z,13.42
2023-01-02T01:49:02.973Z,13.45
2023-01-02T01:51:32.475Z,13.41
2023-01-02T01:54:07.113Z,13.45
2023-01-02T01:56:38.603Z,13.51
2023-01-02T01:59:05.628Z,13.43
2023-01-02T02:01:32.418Z,13.45
2023-01-02T02:03:59.480Z,13.40
2023-01-02T02:06:25.905Z,13.36
2023-01-02T02:08:58.744Z,13.45
2023-01-02T02:11:25.296Z,13.40
2023-01-02T02:13:51.858Z,13.41
2023-01-02T02:16:18.249Z,13.39
2023-01-02T02:19:02.827Z,13.49
2023-01-02T02:22:01.424Z,13.45
2023-01-02T02:25:10.590Z,13.43
2023-01-02T02:28:03.640Z,13.48
2023-01-02T02:30:36.677Z,13.48
2023-01-02T02:33:25.463Z,13.50
2023-01-02T02:36:17.893Z,13.55
2023-01-02T02:39:02.447Z,13.61
2023-01-02T02:41:50.300Z,13.70
2023-01-02T02:44:38.481Z,13.81
2023-01-02T02:47:12.541Z,13.83
2023-01-02T02:50:10.853Z,13.90
2023-01-02T02:57:03.843Z,14.00
2023-01-02T02:59:30.621Z,14.06
2023-01-02T03:01:57.234Z,14.10
2023-01-02T03:04:23.746Z,14.03
2023-01-02T03:07:21.601Z,14.10
2023-01-02T03:10:23.577Z,14.15
2023-01-02T03:12:57.945Z,14.05
2023-01-02T03:15:38.385Z,14.15
2023-01-02T03:18:10.147Z,14.20
2023-01-02T03:20:44.892Z,14.30
2023-01-02T03:23:16.467Z,14.21
2023-01-02T03:25:44.501Z,14.26
2023-01-02T03:28:14.080Z,14.27
2023-01-02T03:30:42.328Z,14.29
2023-01-02T03:33:16.825Z,14.34
2023-01-02T03:35:49.054Z,14.38
2023-01-02T03:38:25.516Z,14.42
2023-01-02T03:41:10.939Z,14.39
2023-01-02T03:43:42.863Z,14.43
2023-01-02T03:46:21.302Z,14.38
2023-01-02T03:49:00.321Z,14.48
2023-01-02T03:51:26.754Z,14.49
2023-01-02T03:53:54.153Z,14.40
2023-01-02T03:56:55.670Z,14.54
2023-01-02T03:59:45.612Z,14.57
2023-01-02T04:02:23.272Z,14.51
2023-01-02T04:04:59.540Z,14.55
2023-01-02T04:07:41.800Z,14.59
2023-01-02T04:10:11.441Z,14.57
2023-01-02T04:12:41.048Z,14.57
2023-01-02T04:15:13.097Z,14.54
2023-01-02T04:17:46.303Z,14.66
2023-01-02T04:20:34.712Z,14.65
2023-01-02T04:23:09.057Z,14.62
2023-01-02T04:25:42.777Z,14.70
2023-01-02T04:28:17.950Z,14.66
2023-01-02T04:30:49.188Z,14.70
2023-01-02T04:33:17.475Z,14.77
2023-01-02T04:35:43.895Z,14.81
2023-01-02T04:38:12.212Z,14.84
2023-01-02T04:40:39.507Z,14.80
2023-01-02T04:43:12.629Z,14.81
2023-01-02T04:45:39.056Z,14.79
2023-01-02T04:48:05.724Z,14.80
2023-01-02T04:50:32.116Z,14.84
2023-01-02T04:53:00.547Z,14.77
2023-01-02T04:55:26.941Z,14.85
2023-01-02T04:57:53.343Z,14.86
2023-01-02T05:00:19.827Z,14.83
2023-01-02T05:02:47.144Z,14.88
2023-01-02T05:05:13.578Z,14.85
2023-01-02T05:07:40.079Z,14.97
2023-01-02T05:10:07.820Z,14.88
2023-01-02T05:12:35.696Z,14.88
2023-01-02T05:15:03.381Z,14.96
2023-01-02T05:17:34.533Z,14.95
2023-01-02T05:20:00.912Z,14.90
2023-01-02T05:22:45.985Z,14.88
2023-01-02T05:25:12.389Z,14.90
2023-01-02T05:27:38.789Z,14.84
2023-01-02T05:30:05.732Z,14.90
2023-01-02T05:32:32.555Z,14.95
2023-01-02T05:34:58.931Z,14.88
2023-01-02T05:37:25.335Z,14.92
2023-01-02T05:39:51.712Z,14.90
2023-01-02T05:42:18.105Z,14.92
2023-01-02T05:44:44.493Z,14.90
2023-01-02T05:47:14.880Z,14.87
2023-01-02T05:49:42.792Z,14.95
2023-01-02T05:52:09.184Z,14.91
2023-01-02T05:54:35.579Z,14.97
2023-01-02T05:57:01.980Z,15.03
2023-01-02T05:59:28.352Z,15.02
2023-01-02T06:01:55.471Z,15.07
2023-01-02T06:04:21.931Z,14.91
2023-01-02T06:06:49.501Z,15.01
2023-01-02T06:09:16.688Z,14.90
2023-01-02T06:11:43.787Z,14.87
2023-01-02T06:14:10.727Z,14.94
2023-01-02T06:16:38.425Z,14.88
2023-01-02T06:19:05.774Z,15.03
2023-01-02T06:21:32.475Z,15.02
2023-01-02T06:23:59.427Z,15.07
2023-01-02T06:26:32.920Z,15.11
2023-01-02T06:29:01.397Z,15.13
2023-01-02T06:31:29.501Z,15.15
2023-01-02T06:33:58.210Z,15.08
2023-01-02T06:36:25.380Z,14.96
2023-01-02T06:38:51.842Z,15.09
2023-01-02T06:41:18.312Z,15.05
2023-01-02T06:43:49.695Z,15.15
2023-01-02T06:46:18.706Z,15.20
2023-01-02T06:48:45.859Z,15.17
2023-01-02T06:51:18.106Z,15.22
2023-01-02T06:53:45.210Z,15.17
2023-01-02T06:56:13.414Z,15.21
2023-01-02T06:58:39.866Z,15.18
2023-01-02T07:01:09.662Z,15.14
2023-01-02T07:03:36.636Z,15.20
2023-01-02T07:06:07.364Z,15.15
2023-01-02T07:08:34.219Z,15.18
2023-01-02T07:11:26.907Z,15.24
2023-01-02T07:14:02.364Z,15.30
2023-01-02T07:16:28.840Z,15.25
2023-01-02T07:18:55.440Z,15.19
2023-01-02T07:21:22.511Z,15.26
2023-01-02T07:23:49.076Z,15.22
2023-01-02T07:26:16.037Z,15.30
2023-01-02T07:28:42.648Z,15.23
2023-01-02T07:31:13.252Z,15.30
2023-01-02T07:33:40.769Z,15.30
2023-01-02T07:36:13.091Z,15.35
2023-01-02T07:38:39.570Z,15.36
2023-01-02T07:41:16.233Z,15.28
2023-01-02T07:43:44.589Z,15.36
2023-01-02T07:46:11.542Z,15.23
2023-01-02T07:48:37.974Z,15.39
2023-01-02T07:51:06.312Z,15.37
2023-01-02T07:53:33.124Z,15.37
2023-01-02T07:56:00.954Z,15.37
2023-01-02T07:58:27.901Z,15.37
2023-01-02T08:00:58.409Z,15.46
2023-01-02T08:03:27.956Z,15.32
2023-01-02T08:05:54.378Z,15.47
2023-01-02T08:08:20.782Z,15.44
2023-01-02T08:10:47.166Z,15.41
2023-01-02T08:13:13.579Z,15.47
2023-01-02T08:15:39.971Z,15.56
2023-01-02T08:18:06.390Z,15.61
2023-01-02T08:20:35.690Z,15.59
2023-01-02T08:23:02.093Z,15.58
2023-01-02T08:25:28.486Z,15.57
2023-01-02T08:27:54.892Z,15.61
2023-01-02T08:30:21.311Z,15.66
2023-01-02T08:32:47.732Z,15.67
2023-01-02T08:35:14.177Z,15.64
2023-01-02T08:37:42.499Z,15.78
2023-01-02T08:40:12.284Z,15.76
2023-01-02T08:42:41.496Z,15.80
2023-01-02T08:45:08.640Z,15.80
2023-01-02T08:47:35.055Z,15.76
2023-01-02T08:50:01.528Z,15.85
2023-01-02T08:52:27.943Z,15.89
2023-01-02T08:54:54.375Z,15.87
2023-01-02T08:57:20.805Z,15.90
2023-01-02T08:59:47.224Z,15.94
2023-01-02T09:02:15.008Z,15.91
2023-01-02T09:04:41.893Z,15.87
2023-01-02T09:07:08.286Z,16.04
2023-01-02T09:09:34.724Z,16.07
2023-01-02T09:12:01.115Z,16.09
2023-01-02T09:14:27.568Z,16.09
2023-01-02T09:16:54.034Z,15.98
2023-01-02T09:19:20.533Z,15.98
2023-01-02T09:21:47.421Z,15.99
2023-01-02T09:24:25.869Z,16.11
2023-01-02T09:26:56.050Z,16.08
2023-01-02T09:29:22.460Z,15.99
2023-01-02T09:31:48.909Z,16.10
2023-01-02T09:34:15.355Z,16.09
2023-01-02T09:36:41.797Z,16.01
2023-01-02T09:39:08.548Z,16.10
2023-01-02T09:41:49.621Z,16.18
2023-01-02T09:44:16.000Z,16.08
2023-01-02T09:46:50.830Z,16.19
2023-01-02T09:49:32.648Z,16.23
2023-01-02T09:51:59.586Z,16.23
2023-01-02T09:54:33.493Z,16.22
2023-01-02T09:57:09.146Z,16.19
2023-01-02T09:59:46.745Z,16.30
2023-01-02T10:02:32.081Z,16.24
2023-01-02T10:05:23.401Z,16.39
2023-01-02T10:08:14.292Z,16.28
2023-01-02T10:10:43.385Z,16.24
2023-01-02T10:13:09.709Z,16.33
2023-01-02T10:15:36.875Z,16.24
2023-01-02T10:18:20.474Z,16.37
2023-01-02T10:20:54.519Z,16.38
2023-01-02T10:23:25.862Z,16.47
2023-01-02T10:25:57.283Z,16.30
2023-01-02T10:28:45.781Z,16.44
2023-01-02T10:31:21.127Z,16.43
2023-01-02T10:33:52.755Z,16.37
2023-01-02T10:36:39.155Z,16.39
2023-01-02T10:39:08.349Z,16.50
2023-01-02T10:41:35.985Z,16.41
2023-01-02T10:44:20.500Z,16.51
2023-01-02T10:46:46.910Z,16.41
2023-01-02T10:49:18.323Z,16.36
2023-01-02T10:52:01.311Z,16.42
2023-01-02T10:54:27.732Z,16.37
2023-01-02T10:56:55.013Z,16.39
2023-01-02T10:59:27.489Z,16.46
2023-01-02T11:01:59.699Z,16.32
2023-01-02T11:04:28.934Z,16.42
2023-01-02T11:07:00.745Z,16.35
2023-01-02T11:09:30.016Z,16.38
2023-01-02T11:12:11.818Z,16.28
2023-01-02T11:14:38.996Z,16.19
2023-01-02T11:17:17.866Z,16.13
2023-01-02T11:19:46.859Z,16.12
2023-01-02T11:22:22.084Z,15.99
2023-01-02T11:25:01.252Z,15.83
2023-01-02T11:27:34.506Z,15.94
2023-01-02T11:30:02.489Z,15.91
2023-01-02T11:32:38.641Z,15.88
2023-01-02T11:35:25.968Z,15.87
2023-01-02T11:37:52.890Z,15.85
2023-01-02T11:40:27.848Z,15.85
2023-01-02T11:43:16.922Z,15.92
2023-01-02T11:45:43.999Z,15.88
2023-01-02T11:48:15.186Z,15.87
2023-01-02T11:50:42.821Z,15.95
2023-01-02T11:53:20.217Z,15.85
2023-01-02T11:55:54.896Z,15.96
2023-01-02T11:58:30.726Z,15.96
2023-01-02T12:01:18.479Z,15.91
2023-01-02T12:03:45.191Z,15.98
2023-01-02T12:06:21.018Z,16.04
2023-01-02T12:09:02.558Z,16.05
2023-01-02T12:11:55.224Z,16.08
2023-01-02T12:14:31.157Z,16.02
2023-01-02T12:17:15.682Z,16.04
2023-01-02T12:20:19.924Z,16.03
2023-01-02T12:23:19.509Z,16.00
2023-01-02T12:25:57.969Z,15.90
2023-01-02T12:29:12.872Z,15.91
2023-01-02T12:31:51.320Z,15.87
2023-01-02T12:34:48.165Z,15.95
2023-01-02T12:37:43.843Z,15.89
2023-01-02T12:40:21.142Z,16.03
2023-01-02T12:43:12.268Z,16.00
2023-01-02T12:45:41.682Z,15.97
2023-01-02T12:48:45.936Z,16.03
2023-01-02T12:51:18.601Z,15.96
2023-01-02T12:54:19.225Z,15.95
2023-01-02T12:57:04.161Z,15.99
2023-01-02T13:00:07.591Z,15.95
2023-01-02T13:03:08.456Z,16.01
2023-01-02T13:05:42.336Z,16.06
2023-01-02T13:08:21.287Z,16.16
2023-01-02T13:10:48.865Z,16.15
2023-01-02T13:13:16.032Z,16.05
2023-01-02T13:15:47.308Z,16.24
2023-01-02T13:18:20.002Z,16.26
2023-01-02T13:21:04.667Z,16.23
2023-01-02T13:23:37.214Z,16.14
2023-01-02T13:26:14.101Z,16.24
2023-01-02T13:29:07.134Z,16.13
2023-01-02T13:31:46.464Z,16.22
2023-01-02T13:34:22.539Z,16.22
2023-01-02T13:36:57.017Z,16.19
2023-01-02T13:39:32.376Z,16.22
2023-01-02T13:42:25.622Z,16.29
2023-01-02T13:44:55.903Z,16.19
2023-01-02T13:47:34.635Z,16.28
2023-01-02T13:50:12.761Z,16.31
2023-01-02T13:52:40.340Z,16.26
2023-01-02T14:08:23.260Z,16.07
2023-01-02T14:11:10.852Z,16.06
2023-01-02T14:13:42.084Z,16.06
2023-01-02T14:16:39.397Z,16.11
2023-01-02T14:19:15.154Z,16.08
2023-01-02T14:21:46.449Z,16.17
2023-01-02T14:24:29.442Z,16.11
2023-01-02T14:27:03.417Z,16.02
2023-01-02T14:29:31.368Z,16.10
2023-01-02T14:32:09.448Z,16.05
2023-01-02T14:34:45.344Z,16.00
2023-01-02T14:37:12.099Z,16.05
2023-01-02T14:39:38.975Z,15.96
2023-01-02T14:42:42.899Z,16.05
2023-01-02T14:45:16.252Z,16.08
2023-01-02T14:47:54.690Z,16.05
2023-01-02T14:50:25.068Z,16.08
2023-01-02T14:53:21.074Z,16.05
2023-01-02T14:56:03.712Z,16.01
2023-01-02T14:58:39.239Z,16.00
2023-01-02T15:01:09.204Z,15.84
2023-01-02T15:04:00.763Z,15.91
2023-01-02T15:06:45.331Z,16.00
2023-01-02T15:09:24.274Z,15.89
2023-01-02T15:12:24.242Z,15.79
2023-01-02T15:14:50.659Z,15.67
2023-01-02T15:17:22.626Z,15.66
2023-01-02T15:19:49.319Z,15.49
2023-01-02T15:22:21.793Z,15.51
2023-01-02T15:24:50.619Z,15.58
2023-01-02T15:27:24.865Z,15.49
2023-01-02T15:29:57.136Z,15.60
2023-01-02T15:32:26.124Z,15.37
2023-01-02T15:34:52.623Z,15.51
2023-01-02T15:37:23.217Z,15.46
2023-01-02T15:39:52.513Z,15.32
2023-01-02T15:42:43.275Z,15.25
2023-01-02T15:45:16.845Z,15.25
2023-01-02T15:47:49.218Z,15.11
2023-01-02T15:50:22.225Z,15.11
2023-01-02T15:53:12.691Z,15.05
2023-01-02T15:55:40.775Z,14.98
2023-01-02T15:58:16.388Z,15.04
2023-01-02T16:00:44.340Z,14.89
2023-01-02T16:03:13.969Z,14.87
2023-01-02T16:05:46.414Z,14.78
2023-01-02T16:08:25.423Z,14.72
2023-01-02T16:11:01.226Z,14.65
2023-01-02T16:13:52.161Z,14.48
2023-01-02T16:16:20.228Z,14.47
2023-01-02T16:18:55.224Z,14.60
2023-01-02T16:21:28.447Z,14.60
2023-01-02T16:23:55.191Z,14.50
2023-01-02T16:26:30.294Z,14.37
2023-01-02T16:28:56.870Z,14.14
2023-01-02T16:31:24.115Z,14.17
2023-01-02T16:33:50.580Z,14.19
2023-01-02T16:36:16.953Z,14.23
2023-01-02T16:39:05.485Z,14.15
2023-01-02T16:41:36.832Z,14.02
2023-01-02T16:44:12.125Z,14.20
2023-01-02T16:46:39.600Z,14.09
2023-01-02T16:49:06.433Z,13.92
2023-01-02T16:51:33.381Z,13.94
2023-01-02T16:54:00.187Z,13.98
2023-01-02T16:56:26.617Z,13.67
2023-01-02T16:58:53.028Z,13.55
2023-01-02T17:01:21.936Z,13.61
2023-01-02T17:03:48.472Z,13.65
2023-01-02T17:06:16.556Z,13.54
2023-01-02T17:08:43.285Z,13.63
2023-01-02T17:11:15.676Z,13.55
2023-01-02T17:13:42.077Z,13.53
2023-01-02T17:16:08.556Z,13.67
2023-01-02T17:18:34.999Z,13.51
2023-01-02T17:21:01.395Z,13.40
2023-01-02T17:23:27.805Z,13.48
2023-01-02T17:25:54.205Z,13.29
2023-01-02T17:28:20.639Z,13.22
2023-01-02T17:30:49.220Z,13.31
2023-01-02T17:33:16.350Z,13.40
2023-01-02T17:35:44.499Z,13.31
2023-01-02T17:38:10.985Z,13.20
2023-01-02T17:40:38.201Z,13.18
2023-01-02T17:43:05.965Z,13.25
2023-01-02T17:45:32.447Z,13.11
2023-01-02T17:48:31.002Z,12.97
2023-01-02T17:50:45.279Z,12.98
2023-01-02T17:53:11.709Z,12.86
2023-01-02T17:55:44.377Z,12.81
2023-01-02T17:58:10.960Z,12.83
2023-01-02T18:00:37.394Z,12.91
2023-01-02T18:03:03.870Z,12.86
2023-01-02T18:05:31.325Z,12.79
2023-01-02T18:07:57.727Z,12.81
2023-01-02T18:10:29.107Z,12.78
2023-01-02T18:13:01.761Z,12.77
2023-01-02T18:15:28.284Z,12.90
2023-01-02T18:17:58.021Z,12.79
2023-01-02T18:20:27.235Z,12.77
2023-01-02T18:22:54.341Z,12.91
2023-01-02T18:25:29.862Z,12.89
2023-01-02T18:27:59.938Z,12.82
2023-01-02T18:30:27.489Z,12.81
2023-01-02T18:33:14.344Z,12.67
2023-01-02T18:35:57.104Z,12.64
2023-01-02T18:38:33.764Z,12.73
2023-01-02T18:41:02.165Z,12.78
2023-01-02T18:43:32.697Z,12.89
2023-01-02T18:46:09.331Z,12.66
2023-01-02T18:48:35.815Z,12.63
2023-01-02T18:51:02.462Z,12.56
2023-01-02T18:53:34.770Z,12.66
2023-01-02T18:56:11.041Z,12.75
2023-01-02T18:58:43.907Z,12.65
2023-01-02T19:01:21.942Z,12.62
2023-01-02T19:03:49.246Z,12.60
2023-01-02T19:06:19.524Z,12.47
2023-01-02T19:08:46.056Z,12.46
2023-01-02T19:11:37.165Z,12.47
2023-01-02T19:14:15.623Z,12.34
2023-01-02T19:16:42.872Z,12.56
2023-01-02T19:19:17.255Z,12.44
2023-01-02T19:21:44.109Z,12.32
2023-01-02T19:24:18.525Z,12.32
2023-01-02T19:26:47.935Z,12.27
2023-01-02T19:29:19.472Z,12.23
2023-01-02T19:32:04.651Z,12.42
2023-01-02T19:34:39.291Z,12.22
2023-01-02T19:37:22.496Z,12.20
2023-01-02T19:39:54.028Z,12.15
2023-01-02T19:42:23.439Z,12.08
2023-01-02T19:44:51.849Z,12.19
2023-01-02T19:47:19.935Z,12.00
2023-01-02T19:49:46.827Z,12.10
2023-01-02T19:52:15.767Z,11.92
2023-01-02T19:54:43.088Z,11.99
2023-01-02T19:57:11.490Z,11.98
2023-01-02T19:59:43.462Z,11.99
2023-01-02T20:02:10.470Z,11.92
2023-01-02T20:04:37.044Z,11.83
2023-01-02T20:07:04.293Z,11.83
2023-01-02T20:09:30.961Z,11.84
2023-01-02T20:12:15.825Z,11.76
2023-01-02T20:14:49.193Z,11.62
2023-01-02T20:17:15.635Z,11.62
2023-01-02T20:19:42.073Z,11.66
2023-01-02T20:22:08.559Z,11.68
2023-01-02T20:24:34.944Z,11.69
2023-01-02T20:27:02.846Z,11.61
2023-01-02T20:29:30.789Z,11.79
2023-01-02T20:31:59.070Z,11.55
2023-01-02T20:34:25.567Z,11.60
2023-01-02T20:36:52.040Z,11.50
2023-01-02T20:39:19.257Z,11.60
2023-01-02T20:41:45.750Z,11.59
2023-01-02T20:44:13.697Z,11.44
2023-01-02T20:46:40.296Z,11.32
2023-01-02T20:49:07.467Z,11.19
2023-01-02T20:51:35.285Z,11.27
2023-01-02T20:54:06.650Z,11.23
2023-01-02T20:56:33.461Z,11.12
2023-01-02T20:59:06.313Z,11.19
2023-01-02T21:01:35.822Z,11.34
2023-01-02T21:04:03.788Z,11.24
2023-01-02T21:06:30.253Z,11.22
2023-01-02T21:08:56.703Z,11.32
2023-01-02T21:11:23.129Z,11.22
2023-01-02T21:13:49.515Z,11.24
2023-01-02T21:16:15.977Z,11.15
2023-01-02T21:18:42.477Z,11.17
2023-01-02T21:21:11.845Z,11.22
2023-01-02T21:23:40.482Z,11.29
2023-01-02T21:26:09.239Z,11.13
2023-01-02T21:28:36.219Z,11.16
2023-01-02T21:31:05.781Z,11.00
2023-01-02T21:33:33.055Z,11.15
2023-01-02T21:36:01.041Z,11.04
2023-01-02T21:38:28.329Z,11.04
2023-01-02T21:41:18.377Z,11.12
2023-01-02T21:43:45.076Z,11.03
2023-01-02T21:46:11.679Z,10.91
2023-01-02T21:48:38.377Z,10.99
2023-01-02T21:51:06.262Z,10.93
2023-01-02T21:53:32.889Z,11.06
2023-01-02T21:55:59.562Z,10.93
2023-01-02T21:58:26.174Z,10.93
2023-01-02T22:00:55.207Z,10.89
2023-01-02T22:03:21.717Z,10.84
2023-01-02T22:05:51.168Z,10.97
2023-01-02T22:08:17.578Z,10.79
2023-01-02T22:10:43.987Z,10.75
2023-01-02T22:13:10.396Z,10.68
2023-01-02T22:15:36.780Z,10.80
2023-01-02T22:18:03.192Z,10.85
2023-01-02T22:20:29.636Z,10.91
2023-01-02T22:22:56.038Z,10.85
2023-01-02T22:25:23.471Z,10.91
2023-01-02T22:27:49.931Z,10.95
2023-01-02T22:30:24.324Z,10.83
2023-01-02T22:32:52.651Z,10.84
2023-01-02T22:35:20.138Z,10.90
2023-01-02T22:37:46.516Z,10.68
2023-01-02T22:40:12.922Z,10.76
2023-01-02T22:43:04.495Z,10.77
2023-01-02T22:45:46.465Z,10.65
2023-01-02T22:48:20.660Z,10.66
2023-01-02T22:50:49.445Z,10.61
2023-01-02T22:53:21.676Z,10.60
2023-01-02T22:55:48.872Z,10.65
2023-01-02T22:58:15.482Z,10.67
2023-01-02T23:00:41.901Z,10.63
2023-01-02T23:03:16.109Z,10.56
2023-01-02T23:05:43.424Z,10.54
2023-01-02T23:08:09.903Z,10.50
2023-01-02T23:10:36.446Z,10.45
2023-01-02T23:13:03.598Z,10.40
2023-01-02T23:15:30.092Z,10.45
2023-01-02T23:18:15.648Z,10.35
2023-01-02T23:20:42.081Z,10.45
2023-01-02T23:23:08.852Z,10.51
2023-01-02T23:25:40.372Z,10.47
2023-01-02T23:28:06.818Z,10.50
2023-01-02T23:30:33.237Z,10.33
2023-01-02T23:32:59.649Z,10.50
2023-01-02T23:35:28.733Z,10.46
2023-01-02T23:37:55.141Z,10.39
2023-01-02T23:40:21.551Z,10.44
2023-01-02T23:42:47.989Z,10.58
2023-01-02T23:45:14.428Z,10.61
2023-01-02T23:47:40.853Z,10.62
2023-01-02T23:50:10.035Z,10.62
2023-01-02T23:52:36.483Z,10.61
2023-01-02T23:55:02.901Z,10.49
2023-01-02T23:57:32.223Z,10.47
2023-01-02T23:59:58.637Z,10.37
